Time;durP1;ratioP1;P1;durP2;ratioP2;P2;SDS_P1;SDS_P2;PMS_P1;PMS_P2;Temp;Humidity;BMP_temperature;BMP_pressure;BME280_temperature;BME280_humidity;BME280_pressure;Samples;Min_cycle;Max_cycle;Signal;HPM_P1;HPM_P2
2023/12/27 00:00:25;;;;;;;;;;;;;;;11.82;nan;99423.25;5074721;28;20090;-68
2023/12/27 00:02:56;;;;;;;523.47;210.30;;;;;;;11.76;nan;99432.78;5080639;28;19924;-68
2023/12/27 00:05:25;;;;;;;504.48;209.00;;;;;;;11.77;nan;99430.97;5082364;28;20036;-69
2023/12/27 00:07:55;;;;;;;499.65;210.73;;;;;;;11.54;nan;99439.78;5084477;28;20044;-68
2023/12/27 00:10:25;;;;;;;453.88;204.20;;;;;;;11.70;nan;99434.31;5066977;28;20040;-69
2023/12/27 00:12:54;;;;;;;538.25;208.65;;;;;;;11.60;nan;99435.56;5078202;28;20147;-69
2023/12/27 00:15:24;;;;;;;454.83;193.23;;;;;;;11.62;nan;99436.22;5081106;28;20048;-69
2023/12/27 00:17:53;;;;;;;447.50;196.07;;;;;;;11.64;nan;99442.97;5082211;28;20059;-69
2023/12/27 00:20:23;;;;;;;459.83;194.13;;;;;;;11.63;nan;99445.84;5066767;28;20052;-69
2023/12/27 00:22:52;;;;;;;400.88;197.43;;;;;;;11.76;nan;99445.25;5070902;28;20112;-69
2023/12/27 00:25:22;;;;;;;421.60;199.52;;;;;;;11.76;nan;99445.25;5059242;28;20059;-70
2023/12/27 00:27:52;;;;;;;400.27;198.20;;;;;;;11.93;nan;99446.72;5074109;28;20079;-70
2023/12/27 00:30:21;;;;;;;399.88;191.18;;;;;;;11.83;nan;99446.16;5076189;28;20153;-69
2023/12/27 00:32:51;;;;;;;431.42;183.13;;;;;;;11.71;nan;99449.22;5078451;28;20185;-70
2023/12/27 00:35:21;;;;;;;384.08;179.77;;;;;;;11.80;nan;99452.66;5048827;28;20049;-70
2023/12/27 00:37:50;;;;;;;388.58;173.50;;;;;;;11.63;nan;99457.28;5066407;28;20141;-69
2023/12/27 00:40:20;;;;;;;378.42;165.70;;;;;;;11.56;nan;99455.50;5069968;28;20438;-69
2023/12/27 00:42:50;;;;;;;324.42;164.02;;;;;;;11.60;nan;99452.31;5076781;28;20043;-67
2023/12/27 00:45:19;;;;;;;344.45;156.35;;;;;;;11.62;nan;99460.09;5064232;28;20659;-68
2023/12/27 00:47:49;;;;;;;291.63;151.93;;;;;;;11.77;nan;99471.59;5045472;28;20041;-69
2023/12/27 00:50:19;;;;;;;296.60;142.07;;;;;;;11.61;nan;99469.06;5046560;28;20040;-69
2023/12/27 00:52:49;;;;;;;284.33;141.15;;;;;;;11.80;nan;99478.38;5078177;28;20100;-68
2023/12/27 00:55:18;;;;;;;279.23;138.10;;;;;;;11.88;nan;99491.53;5048319;28;20048;-69
2023/12/27 00:57:48;;;;;;;309.67;138.27;;;;;;;11.76;nan;99488.53;5064291;28;20464;-69
2023/12/27 01:00:17;;;;;;;271.63;134.50;;;;;;;11.81;nan;99485.34;5063122;28;20570;-69
2023/12/27 01:02:47;;;;;;;346.00;137.20;;;;;;;11.58;nan;99496.78;5056973;28;20048;-69
2023/12/27 01:05:16;;;;;;;283.13;133.90;;;;;;;11.48;nan;99500.69;5062495;28;20078;-68
2023/12/27 01:07:46;;;;;;;268.67;131.20;;;;;;;11.61;nan;99507.03;5080597;28;20397;-70
2023/12/27 01:10:15;;;;;;;261.20;130.35;;;;;;;11.44;nan;99510.00;5083022;28;20064;-69
2023/12/27 01:12:46;;;;;;;289.95;129.43;;;;;;;11.47;nan;99515.75;5064898;28;20226;-69
2023/12/27 01:15:15;;;;;;;286.35;130.40;;;;;;;11.32;nan;99517.56;5059497;28;20040;-68
2023/12/27 01:17:45;;;;;;;263.58;128.55;;;;;;;11.68;nan;99521.22;5083820;28;20048;-68
2023/12/27 01:20:15;;;;;;;329.33;125.45;;;;;;;11.31;nan;99525.69;5063327;28;20217;-69
2023/12/27 01:22:47;;;;;;;275.95;127.78;;;;;;;11.32;nan;99530.81;5071425;28;20456;-69
2023/12/27 01:25:17;;;;;;;367.02;129.88;;;;;;;11.21;nan;99526.72;5080161;28;20144;-69
2023/12/27 01:27:46;;;;;;;251.15;125.85;;;;;;;11.35;nan;99526.97;5048276;28;20044;-68
2023/12/27 01:30:18;;;;;;;275.13;126.38;;;;;;;11.13;nan;99532.09;5058637;28;20581;-68
2023/12/27 01:32:48;;;;;;;306.40;128.07;;;;;;;11.13;nan;99533.91;5069973;28;20462;-68
2023/12/27 01:56:55;;;;;;;371.27;165.50;;;;;;;11.20;nan;99546.28;5072659;27;20823;-69
2023/12/27 01:59:26;;;;;;;385.58;149.20;;;;;;;11.12;nan;99546.34;5090353;27;20439;-69
2023/12/27 02:01:56;;;;;;;340.85;153.07;;;;;;;11.21;nan;99547.13;5076595;28;20037;-69
2023/12/27 02:04:26;;;;;;;350.15;149.15;;;;;;;11.26;nan;99555.38;5072170;27;20400;-69
2023/12/27 02:06:56;;;;;;;338.98;146.27;;;;;;;11.19;nan;99557.91;5078030;28;20040;-69
2023/12/27 02:09:26;;;;;;;371.25;152.50;;;;;;;11.28;nan;99569.28;5080050;28;20054;-69
2023/12/27 02:11:55;;;;;;;442.80;151.77;;;;;;;11.31;nan;99574.25;5080418;28;20048;-69
2023/12/27 02:14:25;;;;;;;373.80;149.10;;;;;;;11.30;nan;99571.75;5078706;28;20137;-69
2023/12/27 02:16:55;;;;;;;370.33;152.68;;;;;;;11.26;nan;99576.59;5040137;28;20044;-69
2023/12/27 02:19:27;;;;;;;435.60;146.48;;;;;;;11.14;nan;99583.28;5069891;28;20221;-68
2023/12/27 02:21:59;;;;;;;378.67;149.87;;;;;;;11.26;nan;99581.88;5079472;28;20078;-70
2023/12/27 02:24:35;;;;;;;425.58;150.18;;;;;;;11.24;nan;99589.22;5080154;28;20340;-69
2023/12/27 02:27:04;;;;;;;326.83;144.98;;;;;;;11.46;nan;99585.72;5068578;28;20044;-69
2023/12/27 02:29:35;;;;;;;357.60;137.68;;;;;;;11.28;nan;99590.50;5079378;28;20048;-69
2023/12/27 02:32:05;;;;;;;389.70;140.32;;;;;;;11.14;nan;99599.19;5079981;28;20048;-69
2023/12/27 02:34:34;;;;;;;353.38;138.88;;;;;;;11.26;nan;99595.16;5079960;28;20102;-69
2023/12/27 02:37:04;;;;;;;359.15;144.73;;;;;;;11.23;nan;99598.16;5080285;27;20055;-69
2023/12/27 02:39:34;;;;;;;355.25;137.60;;;;;;;11.28;nan;99585.19;5080203;28;20051;-69
2023/12/27 02:42:05;;;;;;;404.50;140.90;;;;;;;11.22;nan;99607.09;5079850;28;20041;-69
2023/12/27 02:44:35;;;;;;;341.35;140.48;;;;;;;11.44;nan;99603.66;5080235;28;20048;-69
2023/12/27 02:47:06;;;;;;;324.23;134.70;;;;;;;11.66;nan;99615.28;5080922;28;20044;-70
2023/12/27 02:49:36;;;;;;;304.85;130.95;;;;;;;11.59;nan;99628.44;5068817;28;20132;-69
2023/12/27 02:52:06;;;;;;;324.65;136.88;;;;;;;11.47;nan;99634.28;5106923;27;20124;-69
2023/12/27 02:54:35;;;;;;;325.42;135.85;;;;;;;11.51;nan;99633.78;5079309;28;20041;-69
2023/12/27 02:57:07;;;;;;;342.17;136.10;;;;;;;11.51;nan;99639.06;5058520;28;20488;-70
2023/12/27 02:59:37;;;;;;;367.08;133.68;;;;;;;11.39;nan;99637.84;5063488;28;20052;-68
2023/12/27 03:02:07;;;;;;;289.20;132.90;;;;;;;11.49;nan;99643.75;5061770;28;20123;-69
2023/12/27 03:04:37;;;;;;;308.90;132.57;;;;;;;11.61;nan;99638.84;5067089;28;20395;-68
2023/12/27 03:07:07;;;;;;;275.70;132.30;;;;;;;11.51;nan;99649.69;5063304;28;20110;-69
2023/12/27 03:09:37;;;;;;;290.08;126.78;;;;;;;11.53;nan;99655.66;5039760;28;20106;-69
2023/12/27 03:12:06;;;;;;;253.18;126.90;;;;;;;11.65;nan;99658.72;5064543;28;20138;-69
2023/12/27 03:14:36;;;;;;;278.85;126.05;;;;;;;11.58;nan;99661.28;5067320;28;20041;-69
2023/12/27 03:17:05;;;;;;;253.23;123.72;;;;;;;11.52;nan;99669.09;5059372;28;20067;-69
2023/12/27 03:19:35;;;;;;;262.20;120.05;;;;;;;11.60;nan;99675.16;5088950;28;20059;-69
2023/12/27 03:22:04;;;;;;;277.08;121.72;;;;;;;11.55;nan;99679.38;5061688;28;20048;-69
2023/12/27 03:24:34;;;;;;;238.60;119.85;;;;;;;11.62;nan;99683.78;5065195;28;20471;-69
2023/12/27 03:27:04;;;;;;;237.68;118.30;;;;;;;11.74;nan;99694.03;5050576;28;20118;-69
2023/12/27 03:29:35;;;;;;;243.20;119.40;;;;;;;11.60;nan;99699.03;5057752;28;20045;-69
2023/12/27 03:32:05;;;;;;;247.02;123.22;;;;;;;11.81;nan;99708.25;5064319;28;20071;-69
2023/12/27 03:34:34;;;;;;;276.10;118.85;;;;;;;11.71;nan;99711.94;5055162;28;20045;-69
2023/12/27 03:37:05;;;;;;;246.82;119.85;;;;;;;11.60;nan;99719.44;5060703;28;20143;-69
2023/12/27 03:39:34;;;;;;;240.40;119.78;;;;;;;11.75;nan;99719.56;5066586;28;20047;-69
2023/12/27 03:42:04;;;;;;;248.80;120.05;;;;;;;11.65;nan;99725.88;5063459;28;20040;-69
2023/12/27 03:44:34;;;;;;;238.48;120.88;;;;;;;11.78;nan;99732.47;5066279;28;20039;-68
2023/12/27 03:47:03;;;;;;;232.80;119.40;;;;;;;11.68;nan;99733.50;5065816;28;20663;-70
2023/12/27 03:49:33;;;;;;;242.05;117.88;;;;;;;11.71;nan;99745.59;5065214;28;20051;-69
2023/12/27 03:52:02;;;;;;;261.10;118.53;;;;;;;11.67;nan;99739.00;5052030;28;20063;-69
2023/12/27 03:54:31;;;;;;;294.75;123.55;;;;;;;11.54;nan;99744.88;5039125;28;20050;-70
2023/12/27 03:57:01;;;;;;;217.55;118.22;;;;;;;11.57;nan;99747.16;5066745;28;20135;-69
2023/12/27 03:59:30;;;;;;;257.27;121.18;;;;;;;11.70;nan;99749.25;5065314;28;20758;-69
2023/12/27 04:01:59;;;;;;;257.55;124.75;;;;;;;11.64;nan;99749.94;5061670;28;20612;-69
2023/12/27 04:04:29;;;;;;;256.38;127.20;;;;;;;11.63;nan;99754.44;5052209;28;20096;-69
2023/12/27 04:06:59;;;;;;;233.70;122.13;;;;;;;11.77;nan;99754.72;5046832;28;20110;-68
2023/12/27 04:09:28;;;;;;;240.35;123.40;;;;;;;11.92;nan;99760.94;5051554;28;20052;-72
2023/12/27 04:11:59;;;;;;;236.38;123.63;;;;;;;12.00;nan;99760.88;5065094;28;20129;-69
2023/12/27 04:14:29;;;;;;;240.98;125.00;;;;;;;11.83;nan;99759.31;5064665;28;20676;-69
2023/12/27 04:16:58;;;;;;;241.30;122.63;;;;;;;11.72;nan;99773.84;5064252;28;20055;-69
2023/12/27 04:19:27;;;;;;;241.82;122.97;;;;;;;11.77;nan;99770.66;5063109;28;20075;-68
2023/12/27 04:21:57;;;;;;;246.80;123.90;;;;;;;11.88;nan;99772.91;5062836;28;20501;-69
2023/12/27 04:24:26;;;;;;;238.75;125.22;;;;;;;11.96;nan;99780.81;5065052;28;20128;-69
2023/12/27 04:26:56;;;;;;;257.70;124.30;;;;;;;11.94;nan;99793.44;5063321;28;20148;-69
2023/12/27 04:29:26;;;;;;;250.50;126.50;;;;;;;11.98;nan;99790.28;5064407;28;20045;-68
2023/12/27 04:31:55;;;;;;;258.17;128.88;;;;;;;12.04;nan;99789.56;5063953;28;20040;-68
2023/12/27 04:34:25;;;;;;;262.48;124.60;;;;;;;11.92;nan;99790.97;5064400;28;20044;-68
2023/12/27 04:36:54;;;;;;;235.43;123.78;;;;;;;11.99;nan;99791.09;5063162;28;20612;-68
2023/12/27 04:39:24;;;;;;;237.93;125.53;;;;;;;12.37;nan;99795.50;5063125;28;20139;-69
2023/12/27 04:41:54;;;;;;;248.70;123.72;;;;;;;12.39;nan;99804.09;5061294;28;20153;-69
2023/12/27 04:44:23;;;;;;;250.52;128.68;;;;;;;12.29;nan;99800.88;5063263;28;20106;-69
2023/12/27 04:46:52;;;;;;;260.85;128.75;;;;;;;12.29;nan;99808.84;5063345;28;20063;-69
2023/12/27 04:49:22;;;;;;;267.17;130.85;;;;;;;12.14;nan;99814.06;5059964;28;20140;-69
2023/12/27 04:51:52;;;;;;;258.27;130.13;;;;;;;12.26;nan;99805.72;5062554;28;20045;-67
2023/12/27 04:54:22;;;;;;;243.95;127.40;;;;;;;12.24;nan;99816.50;5063844;28;20623;-66
2023/12/27 04:56:54;;;;;;;255.85;127.68;;;;;;;12.31;nan;99813.97;5062381;28;20101;-66
2023/12/27 04:59:24;;;;;;;247.30;128.25;;;;;;;12.50;nan;99816.16;5058768;28;20052;-66
2023/12/27 05:01:53;;;;;;;248.98;126.68;;;;;;;12.48;nan;99821.63;5061201;28;20067;-66
2023/12/27 05:04:24;;;;;;;240.90;127.65;;;;;;;12.65;nan;99819.72;5028363;28;20045;-66
2023/12/27 05:06:53;;;;;;;241.20;124.78;;;;;;;12.74;nan;99812.50;5043947;28;20048;-65
2023/12/27 05:09:23;;;;;;;247.13;126.03;;;;;;;12.65;nan;99822.38;5055399;28;20066;-67
2023/12/27 05:11:53;;;;;;;243.27;123.90;;;;;;;12.61;nan;99819.22;5060986;28;20044;-66
2023/12/27 05:14:23;;;;;;;241.38;125.00;;;;;;;12.78;nan;99813.78;5060481;28;20406;-67
2023/12/27 05:16:55;;;;;;;225.88;119.55;;;;;;;12.44;nan;99812.38;5061987;28;20044;-67
2023/12/27 05:19:24;;;;;;;237.18;125.65;;;;;;;12.76;nan;99808.63;5058953;28;20109;-66
2023/12/27 05:21:54;;;;;;;256.58;134.07;;;;;;;12.89;nan;99813.34;5059109;28;20064;-67
2023/12/27 05:24:23;;;;;;;238.48;126.85;;;;;;;12.79;nan;99815.44;5061719;28;20133;-68
2023/12/27 05:26:54;;;;;;;236.90;124.28;;;;;;;12.87;nan;99820.69;5062336;28;20132;-67
2023/12/27 05:29:23;;;;;;;238.82;127.70;;;;;;;13.04;nan;99823.00;5062194;28;20048;-67
2023/12/27 05:31:55;;;;;;;234.70;127.88;;;;;;;12.96;nan;99824.94;5062430;28;20143;-68
2023/12/27 05:34:25;;;;;;;242.13;126.95;;;;;;;12.98;nan;99828.22;5059341;28;20804;-68
2023/12/27 05:36:55;;;;;;;209.57;120.28;;;;;;;13.23;nan;99819.00;5060922;28;20055;-68
2023/12/27 05:39:26;;;;;;;225.13;125.40;;;;;;;13.20;nan;99822.03;5061229;28;20135;-69
2023/12/27 05:41:56;;;;;;;229.88;123.93;;;;;;;13.17;nan;99829.56;5061274;28;20053;-68
2023/12/27 05:44:26;;;;;;;237.55;128.02;;;;;;;13.08;nan;99823.47;5078028;28;20047;-69
2023/12/27 05:46:56;;;;;;;229.57;124.78;;;;;;;13.15;nan;99819.09;5057349;28;20060;-69
2023/12/27 05:49:25;;;;;;;228.32;124.25;;;;;;;13.11;nan;99817.81;5058106;28;20044;-68
2023/12/27 05:51:54;;;;;;;218.80;123.05;;;;;;;13.18;nan;99818.75;5066393;28;20040;-69
2023/12/27 05:54:26;;;;;;;217.85;120.60;;;;;;;13.32;nan;99807.28;5062040;28;20054;-67
2023/12/27 05:56:55;;;;;;;237.60;126.90;;;;;;;13.38;nan;99800.41;5045319;28;20041;-65
2023/12/27 05:59:25;;;;;;;266.80;139.60;;;;;;;13.47;nan;99791.31;5053413;28;20796;-67
2023/12/27 06:01:55;;;;;;;262.27;137.90;;;;;;;13.64;nan;99789.28;5061620;28;20068;-67
2023/12/27 06:04:27;;;;;;;255.13;134.95;;;;;;;13.59;nan;99783.69;5062244;28;20041;-66
2023/12/27 06:06:56;;;;;;;253.73;136.20;;;;;;;13.83;nan;99788.72;5052563;28;20691;-64
2023/12/27 06:09:26;;;;;;;258.73;140.70;;;;;;;13.82;nan;99792.38;5059878;28;20049;-65
2023/12/27 06:11:55;;;;;;;248.02;133.32;;;;;;;13.87;nan;99782.84;5063543;28;20033;-65
2023/12/27 06:14:25;;;;;;;257.92;138.23;;;;;;;14.13;nan;99768.16;5062919;28;20477;-64
2023/12/27 06:16:55;;;;;;;268.23;139.77;;;;;;;14.23;nan;99772.16;5066399;28;20059;-64
2023/12/27 06:19:28;;;;;;;260.05;140.10;;;;;;;14.65;nan;99770.50;5063405;28;20127;-64
2023/12/27 06:21:58;;;;;;;251.23;137.25;;;;;;;14.61;nan;99761.25;5067040;28;20033;-64
2023/12/27 06:24:27;;;;;;;243.75;139.07;;;;;;;14.74;nan;99764.03;5062019;28;20143;-64
2023/12/27 06:26:58;;;;;;;255.77;140.15;;;;;;;14.91;nan;99756.59;5060376;28;20047;-63
2023/12/27 06:29:27;;;;;;;262.65;144.95;;;;;;;15.05;nan;99760.97;5064803;28;20037;-64
2023/12/27 06:31:57;;;;;;;283.15;151.48;;;;;;;15.10;nan;99756.69;5068611;28;20118;-63
2023/12/27 06:34:26;;;;;;;292.90;157.35;;;;;;;14.95;nan;99750.66;5071767;28;20072;-64
2023/12/27 06:36:56;;;;;;;297.00;155.90;;;;;;;14.84;nan;99748.53;5073234;28;20419;-63
2023/12/27 06:39:25;;;;;;;288.02;154.35;;;;;;;15.16;nan;99739.09;5065731;28;20783;-64
2023/12/27 06:41:55;;;;;;;284.50;154.07;;;;;;;15.40;nan;99735.91;5068725;28;20131;-64
2023/12/27 06:44:24;;;;;;;269.85;149.40;;;;;;;15.45;nan;99730.81;5065322;28;20048;-64
2023/12/27 06:46:54;;;;;;;274.15;153.63;;;;;;;15.42;nan;99722.38;5069469;28;20135;-64
2023/12/27 06:49:23;;;;;;;267.92;147.15;;;;;;;15.63;nan;99712.44;5070481;28;20111;-63
2023/12/27 06:51:53;;;;;;;272.17;147.18;;;;;;;15.89;nan;99705.56;5069130;28;20059;-63
2023/12/27 06:54:24;;;;;;;259.13;145.88;;;;;;;15.80;nan;99704.88;5072271;28;20523;-64
2023/12/27 06:56:53;;;;;;;251.45;146.00;;;;;;;16.00;nan;99694.25;5069328;28;20090;-64
2023/12/27 06:59:23;;;;;;;257.67;146.77;;;;;;;16.36;nan;99693.88;5067157;28;20076;-64
2023/12/27 07:01:53;;;;;;;245.80;142.05;;;;;;;16.60;nan;99686.09;5036714;28;20059;-63
2023/12/27 07:04:23;;;;;;;252.73;142.02;;;;;;;16.93;nan;99675.34;5052475;28;20052;-64
2023/12/27 07:06:52;;;;;;;248.20;141.77;;;;;;;17.11;nan;99672.00;5074807;28;20063;-64
2023/12/27 07:09:22;;;;;;;249.63;144.63;;;;;;;17.04;nan;99661.28;5060108;28;20131;-64
2023/12/27 07:11:51;;;;;;;241.27;142.57;;;;;;;17.39;nan;99663.66;5073102;28;20052;-64
2023/12/27 07:14:21;;;;;;;241.88;142.75;;;;;;;17.42;nan;99652.50;5067793;28;20542;-64
2023/12/27 07:16:51;;;;;;;244.30;139.20;;;;;;;17.50;nan;99644.22;5068227;28;20056;-64
2023/12/27 07:19:20;;;;;;;238.25;141.10;;;;;;;17.87;nan;99640.75;5059505;28;20051;-64
2023/12/27 07:21:50;;;;;;;259.60;146.18;;;;;;;17.88;nan;99633.50;5065224;28;20036;-64
2023/12/27 07:24:21;;;;;;;248.38;145.45;;;;;;;17.85;nan;99637.47;5062227;28;20151;-64
2023/12/27 07:26:52;;;;;;;256.30;143.70;;;;;;;17.76;nan;99636.06;5044807;28;20056;-64
2023/12/27 07:29:21;;;;;;;236.50;144.15;;;;;;;18.09;nan;99629.66;5064442;28;20064;-65
2023/12/27 07:31:52;;;;;;;271.13;154.85;;;;;;;17.94;nan;99614.72;5062796;28;20101;-64
2023/12/27 07:34:21;;;;;;;279.75;156.80;;;;;;;17.80;nan;99612.34;5058044;28;20543;-64
2023/12/27 07:36:51;;;;;;;270.42;152.70;;;;;;;17.88;nan;99607.53;5060441;28;20395;-64
2023/12/27 07:39:20;;;;;;;269.92;155.32;;;;;;;18.24;nan;99611.38;5063570;28;20076;-64
2023/12/27 07:41:50;;;;;;;277.35;156.15;;;;;;;18.26;nan;99610.13;5055375;28;20037;-65
2023/12/27 07:44:21;;;;;;;284.52;156.27;;;;;;;18.39;nan;99606.50;5061244;28;20067;-64
2023/12/27 07:46:52;;;;;;;290.05;157.65;;;;;;;18.20;nan;99602.97;5062045;28;20036;-65
2023/12/27 07:49:24;;;;;;;276.13;158.55;;;;;;;18.34;nan;99595.63;5061766;28;20076;-65
2023/12/27 07:51:54;;;;;;;289.60;162.77;;;;;;;18.40;nan;99578.66;5053010;28;20044;-65
2023/12/27 07:54:24;;;;;;;309.52;168.88;;;;;;;18.30;nan;99578.31;5060787;28;20487;-65
2023/12/27 07:56:53;;;;;;;316.73;176.85;;;;;;;18.22;nan;99570.56;5060475;28;20048;-65
2023/12/27 07:59:23;;;;;;;327.40;174.23;;;;;;;18.48;nan;99572.16;5063389;28;20078;-64
2023/12/27 08:01:53;;;;;;;354.45;187.55;;;;;;;18.14;nan;99562.81;5060079;28;20466;-64
2023/12/27 08:04:22;;;;;;;384.10;198.98;;;;;;;18.03;nan;99550.94;5061766;28;20400;-65
2023/12/27 08:06:52;;;;;;;367.08;197.27;;;;;;;18.11;nan;99558.69;5068037;28;20054;-64
2023/12/27 08:09:22;;;;;;;361.42;200.57;;;;;;;18.38;nan;99557.41;5067577;28;20052;-64
2023/12/27 08:11:52;;;;;;;365.63;196.85;;;;;;;18.47;nan;99549.06;5063808;28;20131;-64
2023/12/27 08:14:21;;;;;;;351.33;197.85;;;;;;;18.59;nan;99553.50;5062172;28;20052;-64
2023/12/27 08:16:52;;;;;;;346.83;193.20;;;;;;;18.38;nan;99548.53;5062454;28;20440;-64
2023/12/27 08:19:22;;;;;;;359.00;199.65;;;;;;;18.31;nan;99537.88;5064482;28;20044;-64
2023/12/27 08:21:52;;;;;;;373.92;198.38;;;;;;;18.40;nan;99543.78;5073101;28;20044;-64
2023/12/27 08:24:21;;;;;;;373.23;203.68;;;;;;;18.47;nan;99533.78;5065297;28;20062;-64
2023/12/27 08:26:51;;;;;;;386.73;209.07;;;;;;;18.51;nan;99531.47;5057814;28;20059;-64
2023/12/27 08:29:21;;;;;;;374.65;211.75;;;;;;;18.71;nan;99521.38;5069166;28;20075;-64
2023/12/27 08:31:50;;;;;;;398.35;221.32;;;;;;;18.73;nan;99514.72;5077886;28;20117;-64
2023/12/27 08:34:20;;;;;;;399.70;218.60;;;;;;;18.68;nan;99513.75;5068424;28;20055;-65
2023/12/27 08:36:50;;;;;;;405.38;223.32;;;;;;;18.76;nan;99519.63;5061126;28;20040;-65
2023/12/27 08:39:20;;;;;;;400.90;220.27;;;;;;;18.79;nan;99519.22;5063567;28;20055;-65
2023/12/27 08:41:51;;;;;;;400.30;221.13;;;;;;;18.77;nan;99513.22;5058737;28;20056;-65
2023/12/27 08:44:21;;;;;;;423.05;234.73;;;;;;;18.64;nan;99502.66;5066106;28;20357;-65
2023/12/27 08:46:50;;;;;;;428.35;240.65;;;;;;;18.78;nan;99498.78;5059902;28;20049;-65
2023/12/27 08:49:20;;;;;;;422.02;235.57;;;;;;;18.72;nan;99491.63;5060245;28;20371;-65
2023/12/27 08:51:49;;;;;;;420.50;236.98;;;;;;;18.94;nan;99501.91;5056553;28;20044;-65
2023/12/27 08:54:20;;;;;;;421.73;233.43;;;;;;;18.78;nan;99493.41;5062706;28;20338;-65
2023/12/27 08:56:50;;;;;;;422.05;234.88;;;;;;;19.02;nan;99498.88;5060438;28;20045;-64
2023/12/27 08:59:20;;;;;;;413.70;231.63;;;;;;;19.07;nan;99504.41;5053840;28;20731;-64
2023/12/27 09:01:49;;;;;;;415.33;233.45;;;;;;;18.95;nan;99503.50;5060159;28;20044;-64
2023/12/27 09:04:20;;;;;;;420.90;236.45;;;;;;;18.73;nan;99504.00;5067695;28;20048;-64
2023/12/27 09:06:53;;;;;;;;;;;;;;;18.77;nan;99497.13;5073155;28;20064;-64
2023/12/27 09:09:23;;;;;;;393.27;222.98;;;;;;;18.79;nan;99497.75;5069489;28;20024;-64
2023/12/27 09:11:52;;;;;;;413.88;224.75;;;;;;;18.85;nan;99499.50;5067144;28;20059;-63
2023/12/27 09:14:22;;;;;;;394.38;222.32;;;;;;;18.94;nan;99494.63;5062926;28;20056;-63
2023/12/27 09:16:51;;;;;;;393.92;220.48;;;;;;;18.99;nan;99499.31;5059270;28;20064;-64
2023/12/27 09:19:21;;;;;;;400.70;223.80;;;;;;;19.00;nan;99492.91;5060665;28;20145;-64
2023/12/27 09:21:51;;;;;;;395.33;220.55;;;;;;;19.04;nan;99499.47;5073668;28;20044;-63
2023/12/27 09:24:20;;;;;;;364.42;207.77;;;;;;;18.90;nan;99489.97;5073994;28;20044;-64
2023/12/27 09:26:49;;;;;;;360.27;203.00;;;;;;;18.94;nan;99483.91;5066469;28;20063;-64
2023/12/27 09:29:19;;;;;;;362.88;203.77;;;;;;;18.98;nan;99487.78;5054856;28;20052;-64
2023/12/27 09:31:48;;;;;;;291.30;175.27;;;;;;;18.93;nan;99489.50;5060436;28;20044;-65
2023/12/27 09:34:18;;;;;;;274.55;161.80;;;;;;;18.88;nan;99484.00;5069985;28;20044;-65
2023/12/27 09:36:49;;;;;;;250.60;151.25;;;;;;;19.08;nan;99484.53;5066265;28;20101;-65
2023/12/27 09:39:18;;;;;;;242.98;146.82;;;;;;;18.80;nan;99483.28;5064003;28;20113;-65
2023/12/27 09:41:48;;;;;;;245.45;146.80;;;;;;;18.81;nan;99484.91;5065919;28;20076;-65
2023/12/27 09:44:20;;;;;;;241.43;149.55;;;;;;;18.90;nan;99477.34;5063838;28;20063;-65
2023/12/27 09:46:50;;;;;;;232.68;143.73;;;;;;;18.83;nan;99479.31;5060233;28;20150;-65
2023/12/27 09:49:22;;;;;;;213.38;143.82;;;;;;;18.81;nan;99473.34;5061849;28;20118;-65
2023/12/27 09:51:55;;;;;;;218.32;143.32;;;;;;;18.78;nan;99476.47;5061975;28;20055;-65
2023/12/27 09:54:25;;;;;;;205.00;136.27;;;;;;;18.64;nan;99473.16;5063125;28;20048;-65
2023/12/27 09:56:55;;;;;;;213.27;132.60;;;;;;;18.70;nan;99468.75;5064360;28;20052;-65
2023/12/27 09:59:36;;;;;;;207.05;129.88;;;;;;;18.70;nan;99472.25;5063972;28;20049;-65
2023/12/27 10:02:15;;;;;;;205.85;129.18;;;;;;;18.58;nan;99471.38;5065110;28;20050;-64
2023/12/27 10:04:57;;;;;;;201.98;127.50;;;;;;;18.43;nan;99462.84;5065516;28;20476;-64
2023/12/27 10:07:28;;;;;;;204.00;131.30;;;;;;;18.43;nan;99446.75;5064823;28;20048;-64
2023/12/27 10:09:57;;;;;;;192.82;127.10;;;;;;;18.55;nan;99449.53;5071838;28;20763;-64
2023/12/27 10:12:35;;;;;;;192.23;129.68;;;;;;;18.53;nan;99443.59;5078998;28;20553;-65
2023/12/27 10:15:05;;;;;;;183.05;122.00;;;;;;;18.59;nan;99451.53;5062927;28;20131;-65
2023/12/27 10:17:35;;;;;;;190.73;123.45;;;;;;;18.58;nan;99444.56;5064275;28;20052;-63
2023/12/27 10:20:06;;;;;;;189.30;122.03;;;;;;;18.52;nan;99442.72;5063215;28;20059;-64
2023/12/27 10:22:36;;;;;;;178.13;121.40;;;;;;;18.54;nan;99442.53;5067959;28;20153;-64
2023/12/27 10:25:08;;;;;;;189.85;120.68;;;;;;;18.58;nan;99454.47;5068924;28;20551;-64
2023/12/27 10:27:39;;;;;;;181.18;118.03;;;;;;;18.46;nan;99453.53;5070201;28;20139;-64
2023/12/27 10:30:11;;;;;;;187.00;121.18;;;;;;;18.34;nan;99443.56;5069050;28;20055;-65
2023/12/27 10:32:40;;;;;;;187.05;118.75;;;;;;;18.36;nan;99440.66;5069462;28;20123;-65
2023/12/27 10:35:10;;;;;;;190.48;123.80;;;;;;;18.34;nan;99445.44;5069886;28;20124;-64
2023/12/27 10:37:39;;;;;;;193.57;123.00;;;;;;;18.30;nan;99445.06;5071082;28;20126;-64
2023/12/27 10:40:11;;;;;;;202.68;122.05;;;;;;;18.14;nan;99434.13;5067041;28;20611;-64
2023/12/27 10:42:41;;;;;;;191.82;122.20;;;;;;;18.12;nan;99434.34;5066924;28;20051;-64
2023/12/27 10:45:11;;;;;;;208.63;127.13;;;;;;;18.11;nan;99445.28;5079152;28;20044;-64
2023/12/27 10:47:48;;;;;;;222.38;127.05;;;;;;;18.09;nan;99440.16;5074857;28;20109;-64
2023/12/27 10:50:20;;;;;;;206.20;128.07;;;;;;;18.05;nan;99441.63;5066998;28;20063;-64
2023/12/27 10:52:59;;;;;;;216.63;130.68;;;;;;;17.98;nan;99437.38;5071271;28;20438;-64
2023/12/27 10:55:30;;;;;;;216.38;128.63;;;;;;;17.92;nan;99429.16;5069411;28;20645;-65
2023/12/27 10:58:02;;;;;;;219.75;129.75;;;;;;;17.92;nan;99434.53;5066480;28;20048;-64
2023/12/27 11:00:34;;;;;;;217.30;129.82;;;;;;;17.89;nan;99426.94;5050751;28;20453;-64
2023/12/27 11:03:06;;;;;;;215.32;131.65;;;;;;;17.84;nan;99429.47;5050447;28;20072;-65
2023/12/27 11:05:37;;;;;;;225.20;131.27;;;;;;;17.82;nan;99430.75;5046790;28;20120;-64
2023/12/27 11:08:10;;;;;;;224.15;131.88;;;;;;;17.71;nan;99424.22;5051455;28;20053;-65
2023/12/27 11:10:41;;;;;;;225.50;134.18;;;;;;;17.61;nan;99417.75;5051645;28;20135;-64
2023/12/27 11:13:12;;;;;;;225.88;134.82;;;;;;;17.60;nan;99419.63;5046762;28;20463;-64
2023/12/27 11:15:45;;;;;;;236.77;139.13;;;;;;;17.58;nan;99415.47;5051165;28;20376;-64
2023/12/27 11:18:17;;;;;;;228.70;134.57;;;;;;;17.53;nan;99410.75;5048591;28;20385;-65
2023/12/27 11:20:49;;;;;;;240.68;137.25;;;;;;;17.38;nan;99415.66;5053563;28;20076;-64
2023/12/27 11:23:20;;;;;;;231.40;136.98;;;;;;;17.33;nan;99412.81;5055080;28;20342;-64
2023/12/27 11:25:51;;;;;;;240.23;137.25;;;;;;;17.34;nan;99417.13;5048695;28;20067;-64
2023/12/27 11:28:21;;;;;;;237.52;139.00;;;;;;;17.28;nan;99416.13;5049921;28;20061;-65
2023/12/27 11:30:51;;;;;;;229.27;134.43;;;;;;;17.18;nan;99407.75;5050522;28;20050;-64
2023/12/27 11:33:24;;;;;;;239.40;139.05;;;;;;;17.10;nan;99409.88;5056781;28;20585;-64
2023/12/27 11:35:57;;;;;;;235.70;140.43;;;;;;;17.04;nan;99415.06;5047416;28;20763;-64
2023/12/27 11:38:27;;;;;;;234.98;137.68;;;;;;;16.94;nan;99414.75;5038644;28;20056;-64
2023/12/27 11:41:00;;;;;;;249.70;142.55;;;;;;;16.95;nan;99416.38;5038964;28;20064;-64
2023/12/27 11:43:56;;;;;;;250.13;146.38;;;;;;;16.88;nan;99418.28;5034728;28;20192;-64
2023/12/27 11:46:28;;;;;;;253.80;144.73;;;;;;;16.76;nan;99421.84;5037553;28;20045;-65
2023/12/27 11:48:59;;;;;;;282.20;150.30;;;;;;;16.73;nan;99423.09;5045855;28;20041;-64
2023/12/27 11:51:39;;;;;;;281.88;153.05;;;;;;;16.71;nan;99421.66;5039047;28;20783;-64